sensor_id;sensor_type;location;lat;lon;timestamp;temperature;humidity
1504;DHT22;743;47.076;15.494;2023-02-28T00:00:39;4.70;1.00
1504;DHT22;743;47.076;15.494;2023-02-28T00:03:07;4.90;1.00
1504;DHT22;743;47.076;15.494;2023-02-28T00:05:41;4.70;1.00
1504;DHT22;743;47.076;15.494;2023-02-28T00:08:08;4.60;1.00
1504;DHT22;743;47.076;15.494;2023-02-28T00:10:42;4.30;1.00
1504;DHT22;743;47.076;15.494;2023-02-28T00:13:11;4.50;1.00
1504;DHT22;743;47.076;15.494;2023-02-28T00:15:39;4.80;1.00
1504;DHT22;743;47.076;15.494;2023-02-28T00:18:08;4.60;1.00
1504;DHT22;743;47.076;15.494;2023-02-28T00:20:39;4.80;1.00
1504;DHT22;743;47.076;15.494;2023-02-28T00:23:08;4.50;1.00
1504;DHT22;743;47.076;15.494;2023-02-28T00:25:40;4.50;1.00
1504;DHT22;743;47.076;15.494;2023-02-28T00:28:11;4.60;1.00
1504;DHT22;743;47.076;15.494;2023-02-28T00:30:38;4.60;1.00
1504;DHT22;743;47.076;15.494;2023-02-28T00:33:07;4.30;1.00
1504;DHT22;743;47.076;15.494;2023-02-28T00:35:37;3.80;1.00
1504;DHT22;743;47.076;15.494;2023-02-28T00:38:09;5.00;1.00
1504;DHT22;743;47.076;15.494;2023-02-28T00:40:40;4.60;1.00
1504;DHT22;743;47.076;15.494;2023-02-28T00:43:08;4.60;1.00
1504;DHT22;743;47.076;15.494;2023-02-28T00:45:38;4.70;1.00
1504;DHT22;743;47.076;15.494;2023-02-28T00:48:06;4.60;1.00
1504;DHT22;743;47.076;15.494;2023-02-28T00:53:04;4.80;1.00
1504;DHT22;743;47.076;15.494;2023-02-28T00:55:32;4.80;1.00
1504;DHT22;743;47.076;15.494;2023-02-28T00:58:01;4.80;1.00
1504;DHT22;743;47.076;15.494;2023-02-28T01:00:32;4.70;1.00
1504;DHT22;743;47.076;15.494;2023-02-28T01:03:00;4.70;1.00
1504;DHT22;743;47.076;15.494;2023-02-28T01:05:28;4.70;1.00
1504;DHT22;743;47.076;15.494;2023-02-28T01:07:56;4.40;1.00
1504;DHT22;743;47.076;15.494;2023-02-28T01:10:25;4.60;1.00
1504;DHT22;743;47.076;15.494;2023-02-28T01:12:59;4.50;1.00
1504;DHT22;743;47.076;15.494;2023-02-28T01:15:28;4.50;1.00
1504;DHT22;743;47.076;15.494;2023-02-28T01:17:58;4.70;1.00
1504;DHT22;743;47.076;15.494;2023-02-28T01:20:25;4.70;1.00
1504;DHT22;743;47.076;15.494;2023-02-28T01:22:54;4.90;1.00
1504;DHT22;743;47.076;15.494;2023-02-28T01:25:22;5.00;1.00
1504;DHT22;743;47.076;15.494;2023-02-28T01:28:00;4.60;1.00
1504;DHT22;743;47.076;15.494;2023-02-28T01:30:31;5.40;1.00
1504;DHT22;743;47.076;15.494;2023-02-28T01:33:01;4.70;1.00
1504;DHT22;743;47.076;15.494;2023-02-28T01:35:33;5.00;1.00
1504;DHT22;743;47.076;15.494;2023-02-28T01:38:04;4.40;1.00
1504;DHT22;743;47.076;15.494;2023-02-28T01:40:32;4.60;1.00
1504;DHT22;743;47.076;15.494;2023-02-28T01:43:00;4.50;1.00
1504;DHT22;743;47.076;15.494;2023-02-28T01:45:31;4.70;1.00
1504;DHT22;743;47.076;15.494;2023-02-28T01:48:04;4.20;1.00
1504;DHT22;743;47.076;15.494;2023-02-28T01:50:35;4.50;1.00
1504;DHT22;743;47.076;15.494;2023-02-28T01:53:08;4.00;1.00
1504;DHT22;743;47.076;15.494;2023-02-28T01:55:40;4.30;1.00
1504;DHT22;743;47.076;15.494;2023-02-28T01:58:08;4.60;1.00
1504;DHT22;743;47.076;15.494;2023-02-28T02:00:43;4.50;1.00
1504;DHT22;743;47.076;15.494;2023-02-28T02:03:13;4.20;1.00
1504;DHT22;743;47.076;15.494;2023-02-28T02:05:45;4.50;1.00
1504;DHT22;743;47.076;15.494;2023-02-28T02:08:19;4.40;1.00
1504;DHT22;743;47.076;15.494;2023-02-28T02:10:50;4.50;1.00
1504;DHT22;743;47.076;15.494;2023-02-28T02:13:43;4.40;1.00
1504;DHT22;743;47.076;15.494;2023-02-28T02:16:29;4.40;1.00
1504;DHT22;743;47.076;15.494;2023-02-28T02:19:15;4.00;1.00
1504;DHT22;743;47.076;15.494;2023-02-28T02:22:21;4.70;1.00
1504;DHT22;743;47.076;15.494;2023-02-28T02:25:11;4.30;1.00
1504;DHT22;743;47.076;15.494;2023-02-28T02:27:59;5.00;1.00
1504;DHT22;743;47.076;15.494;2023-02-28T02:37:00;4.60;1.00
1504;DHT22;743;47.076;15.494;2023-02-28T02:39:35;4.70;1.00
1504;DHT22;743;47.076;15.494;2023-02-28T02:42:09;4.70;1.00
1504;DHT22;743;47.076;15.494;2023-02-28T02:44:52;4.80;1.00
1504;DHT22;743;47.076;15.494;2023-02-28T02:47:27;5.00;1.00
1504;DHT22;743;47.076;15.494;2023-02-28T02:50:01;5.00;1.00
1504;DHT22;743;47.076;15.494;2023-02-28T02:52:37;5.00;1.00
1504;DHT22;743;47.076;15.494;2023-02-28T02:55:07;5.00;1.00
1504;DHT22;743;47.076;15.494;2023-02-28T02:57:40;5.20;1.00
1504;DHT22;743;47.076;15.494;2023-02-28T03:00:11;4.90;1.00
1504;DHT22;743;47.076;15.494;2023-02-28T03:02:40;4.90;1.00
1504;DHT22;743;47.076;15.494;2023-02-28T03:05:16;5.10;1.00
1504;DHT22;743;47.076;15.494;2023-02-28T03:07:54;4.20;1.00
1504;DHT22;743;47.076;15.494;2023-02-28T03:10:56;4.90;1.00
1504;DHT22;743;47.076;15.494;2023-02-28T03:13:47;4.90;1.00
1504;DHT22;743;47.076;15.494;2023-02-28T03:19:51;4.80;1.00
1504;DHT22;743;47.076;15.494;2023-02-28T03:22:36;4.90;1.00
1504;DHT22;743;47.076;15.494;2023-02-28T03:25:09;4.80;1.00
1504;DHT22;743;47.076;15.494;2023-02-28T03:27:45;4.90;1.00
1504;DHT22;743;47.076;15.494;2023-02-28T03:30:24;5.10;1.00
1504;DHT22;743;47.076;15.494;2023-02-28T03:32:57;4.70;1.00
1504;DHT22;743;47.076;15.494;2023-02-28T03:35:28;4.80;1.00
1504;DHT22;743;47.076;15.494;2023-02-28T03:38:03;5.00;1.00
1504;DHT22;743;47.076;15.494;2023-02-28T03:40:36;4.70;1.00
1504;DHT22;743;47.076;15.494;2023-02-28T03:43:10;4.70;1.00
1504;DHT22;743;47.076;15.494;2023-02-28T03:45:42;4.70;1.00
1504;DHT22;743;47.076;15.494;2023-02-28T03:50:43;5.20;1.00
1504;DHT22;743;47.076;15.494;2023-02-28T03:53:18;5.10;1.00
1504;DHT22;743;47.076;15.494;2023-02-28T03:55:52;5.00;1.00
1504;DHT22;743;47.076;15.494;2023-02-28T03:58:25;4.30;1.00
1504;DHT22;743;47.076;15.494;2023-02-28T04:00:59;5.30;1.00
1504;DHT22;743;47.076;15.494;2023-02-28T04:03:35;4.30;1.00
1504;DHT22;743;47.076;15.494;2023-02-28T04:06:03;4.90;1.00
1504;DHT22;743;47.076;15.494;2023-02-28T04:08:40;4.70;1.00
1504;DHT22;743;47.076;15.494;2023-02-28T04:11:17;4.70;1.00
1504;DHT22;743;47.076;15.494;2023-02-28T04:13:45;4.90;1.00
1504;DHT22;743;47.076;15.494;2023-02-28T04:16:14;4.70;1.00
1504;DHT22;743;47.076;15.494;2023-02-28T04:18:45;4.60;1.00
1504;DHT22;743;47.076;15.494;2023-02-28T04:21:12;4.60;1.00
1504;DHT22;743;47.076;15.494;2023-02-28T04:23:40;4.60;1.00
1504;DHT22;743;47.076;15.494;2023-02-28T04:26:12;5.30;1.00
1504;DHT22;743;47.076;15.494;2023-02-28T04:28:39;4.50;1.00
1504;DHT22;743;47.076;15.494;2023-02-28T04:31:06;4.40;1.00
1504;DHT22;743;47.076;15.494;2023-02-28T04:36:07;4.60;1.00
1504;DHT22;743;47.076;15.494;2023-02-28T04:38:36;4.50;1.00
1504;DHT22;743;47.076;15.494;2023-02-28T04:41:07;4.60;1.00
1504;DHT22;743;47.076;15.494;2023-02-28T04:43:38;4.20;1.00
1504;DHT22;743;47.076;15.494;2023-02-28T04:46:08;4.40;1.00
1504;DHT22;743;47.076;15.494;2023-02-28T04:48:37;4.40;1.00
1504;DHT22;743;47.076;15.494;2023-02-28T04:51:08;4.60;1.00
1504;DHT22;743;47.076;15.494;2023-02-28T04:53:36;4.50;1.00
1504;DHT22;743;47.076;15.494;2023-02-28T04:56:06;4.60;1.00
1504;DHT22;743;47.076;15.494;2023-02-28T04:58:39;4.90;1.00
1504;DHT22;743;47.076;15.494;2023-02-28T05:01:21;4.70;1.00
1504;DHT22;743;47.076;15.494;2023-02-28T05:03:50;4.60;1.00
1504;DHT22;743;47.076;15.494;2023-02-28T05:06:18;4.10;1.00
1504;DHT22;743;47.076;15.494;2023-02-28T05:08:46;4.80;1.00
1504;DHT22;743;47.076;15.494;2023-02-28T05:11:21;4.70;1.00
1504;DHT22;743;47.076;15.494;2023-02-28T05:13:51;4.70;1.00
1504;DHT22;743;47.076;15.494;2023-02-28T05:16:19;4.40;1.00
1504;DHT22;743;47.076;15.494;2023-02-28T05:18:47;4.50;1.00
1504;DHT22;743;47.076;15.494;2023-02-28T05:21:24;4.80;1.00
1504;DHT22;743;47.076;15.494;2023-02-28T05:23:55;4.90;1.00
1504;DHT22;743;47.076;15.494;2023-02-28T05:26:24;4.70;1.00
1504;DHT22;743;47.076;15.494;2023-02-28T05:28:55;4.70;1.00
1504;DHT22;743;47.076;15.494;2023-02-28T05:31:25;4.50;1.00
1504;DHT22;743;47.076;15.494;2023-02-28T05:33:53;4.80;1.00
1504;DHT22;743;47.076;15.494;2023-02-28T05:36:26;4.70;1.00
1504;DHT22;743;47.076;15.494;2023-02-28T05:38:54;4.50;1.00
1504;DHT22;743;47.076;15.494;2023-02-28T05:43:52;4.50;1.00
1504;DHT22;743;47.076;15.494;2023-02-28T05:46:21;4.70;1.00
1504;DHT22;743;47.076;15.494;2023-02-28T05:48:50;4.80;1.00
1504;DHT22;743;47.076;15.494;2023-02-28T05:51:18;5.70;99.90
1504;DHT22;743;47.076;15.494;2023-02-28T05:53:45;8.80;1.00
1504;DHT22;743;47.076;15.494;2023-02-28T05:56:13;10.70;1.00
1504;DHT22;743;47.076;15.494;2023-02-28T05:58:41;12.30;1.00
1504;DHT22;743;47.076;15.494;2023-02-28T06:01:25;11.60;1.00
1504;DHT22;743;47.076;15.494;2023-02-28T06:04:01;10.30;1.00
1504;DHT22;743;47.076;15.494;2023-02-28T06:06:29;10.20;1.00
1504;DHT22;743;47.076;15.494;2023-02-28T06:08:59;7.80;1.00
1504;DHT22;743;47.076;15.494;2023-02-28T06:13:56;6.80;1.00
1504;DHT22;743;47.076;15.494;2023-02-28T06:16:30;6.70;1.00
1504;DHT22;743;47.076;15.494;2023-02-28T06:19:01;6.40;1.00
1504;DHT22;743;47.076;15.494;2023-02-28T06:21:31;6.00;1.00
1504;DHT22;743;47.076;15.494;2023-02-28T06:23:59;5.90;1.00
1504;DHT22;743;47.076;15.494;2023-02-28T06:26:31;5.70;1.00
1504;DHT22;743;47.076;15.494;2023-02-28T06:28:59;5.20;1.00
1504;DHT22;743;47.076;15.494;2023-02-28T06:31:29;5.10;1.00
1504;DHT22;743;47.076;15.494;2023-02-28T06:36:25;5.20;1.00
1504;DHT22;743;47.076;15.494;2023-02-28T06:38:55;5.60;1.00
1504;DHT22;743;47.076;15.494;2023-02-28T06:41:24;6.80;99.90
1504;DHT22;743;47.076;15.494;2023-02-28T06:43:55;7.40;1.00
1504;DHT22;743;47.076;15.494;2023-02-28T06:46:25;6.90;1.00
1504;DHT22;743;47.076;15.494;2023-02-28T06:48:55;6.20;1.00
1504;DHT22;743;47.076;15.494;2023-02-28T06:51:24;6.00;1.00
1504;DHT22;743;47.076;15.494;2023-02-28T06:53:53;5.60;1.00
1504;DHT22;743;47.076;15.494;2023-02-28T06:56:21;5.70;1.00
1504;DHT22;743;47.076;15.494;2023-02-28T06:58:52;5.80;1.00
1504;DHT22;743;47.076;15.494;2023-02-28T07:01:19;5.20;1.00
1504;DHT22;743;47.076;15.494;2023-02-28T07:03:49;5.20;1.00
1504;DHT22;743;47.076;15.494;2023-02-28T07:06:19;5.40;1.00
1504;DHT22;743;47.076;15.494;2023-02-28T07:08:48;5.30;1.00
1504;DHT22;743;47.076;15.494;2023-02-28T07:11:15;5.20;1.00
1504;DHT22;743;47.076;15.494;2023-02-28T07:13:44;4.80;1.00
1504;DHT22;743;47.076;15.494;2023-02-28T07:16:14;5.20;1.00
1504;DHT22;743;47.076;15.494;2023-02-28T07:18:42;5.20;1.00
1504;DHT22;743;47.076;15.494;2023-02-28T07:21:13;5.70;1.00
1504;DHT22;743;47.076;15.494;2023-02-28T07:23:44;4.30;1.00
1504;DHT22;743;47.076;15.494;2023-02-28T07:26:13;4.90;1.00
1504;DHT22;743;47.076;15.494;2023-02-28T07:28:43;5.00;1.00
1504;DHT22;743;47.076;15.494;2023-02-28T07:31:12;4.60;1.00
1504;DHT22;743;47.076;15.494;2023-02-28T07:33:43;5.00;1.00
1504;DHT22;743;47.076;15.494;2023-02-28T07:36:14;5.10;1.00
1504;DHT22;743;47.076;15.494;2023-02-28T07:38:46;4.80;1.00
1504;DHT22;743;47.076;15.494;2023-02-28T07:41:16;5.60;1.00
1504;DHT22;743;47.076;15.494;2023-02-28T07:46:14;10.10;1.00
1504;DHT22;743;47.076;15.494;2023-02-28T07:48:43;11.90;1.00
1504;DHT22;743;47.076;15.494;2023-02-28T07:51:11;11.50;1.00
1504;DHT22;743;47.076;15.494;2023-02-28T07:56:09;9.30;1.00
1504;DHT22;743;47.076;15.494;2023-02-28T07:58:38;8.70;1.00
1504;DHT22;743;47.076;15.494;2023-02-28T08:01:06;7.90;1.00
1504;DHT22;743;47.076;15.494;2023-02-28T08:03:35;7.20;1.00
1504;DHT22;743;47.076;15.494;2023-02-28T08:06:15;7.00;1.00
1504;DHT22;743;47.076;15.494;2023-02-28T08:08:43;6.20;1.00
1504;DHT22;743;47.076;15.494;2023-02-28T08:11:14;6.10;1.00
1504;DHT22;743;47.076;15.494;2023-02-28T08:13:42;6.10;1.00
1504;DHT22;743;47.076;15.494;2023-02-28T08:16:11;6.00;1.00
1504;DHT22;743;47.076;15.494;2023-02-28T08:18:43;5.90;1.00
1504;DHT22;743;47.076;15.494;2023-02-28T08:21:11;6.00;1.00
1504;DHT22;743;47.076;15.494;2023-02-28T08:23:39;6.10;1.00
1504;DHT22;743;47.076;15.494;2023-02-28T08:26:10;6.20;1.00
1504;DHT22;743;47.076;15.494;2023-02-28T08:28:42;6.10;1.00
1504;DHT22;743;47.076;15.494;2023-02-28T08:31:13;5.90;1.00
1504;DHT22;743;47.076;15.494;2023-02-28T08:33:42;6.30;1.00
1504;DHT22;743;47.076;15.494;2023-02-28T08:36:10;5.80;1.00
1504;DHT22;743;47.076;15.494;2023-02-28T08:38:38;5.90;1.00
1504;DHT22;743;47.076;15.494;2023-02-28T08:41:09;5.70;1.00
1504;DHT22;743;47.076;15.494;2023-02-28T08:43:39;5.90;1.00
1504;DHT22;743;47.076;15.494;2023-02-28T08:46:08;5.90;1.00
1504;DHT22;743;47.076;15.494;2023-02-28T08:48:37;5.90;1.00
1504;DHT22;743;47.076;15.494;2023-02-28T08:51:13;6.10;1.00
1504;DHT22;743;47.076;15.494;2023-02-28T08:53:41;6.20;1.00
1504;DHT22;743;47.076;15.494;2023-02-28T08:56:12;5.90;1.00
1504;DHT22;743;47.076;15.494;2023-02-28T08:58:41;5.80;1.00
1504;DHT22;743;47.076;15.494;2023-02-28T09:01:21;5.10;1.00
1504;DHT22;743;47.076;15.494;2023-02-28T09:04:11;5.60;1.00
1504;DHT22;743;47.076;15.494;2023-02-28T09:06:42;5.70;1.00
1504;DHT22;743;47.076;15.494;2023-02-28T09:09:36;5.90;1.00
1504;DHT22;743;47.076;15.494;2023-02-28T09:12:20;5.70;1.00
1504;DHT22;743;47.076;15.494;2023-02-28T09:14:52;5.50;1.00
1504;DHT22;743;47.076;15.494;2023-02-28T09:17:22;6.00;1.00
1504;DHT22;743;47.076;15.494;2023-02-28T09:19:51;5.70;1.00
1504;DHT22;743;47.076;15.494;2023-02-28T09:22:22;5.80;1.00
1504;DHT22;743;47.076;15.494;2023-02-28T09:24:50;6.30;1.00
1504;DHT22;743;47.076;15.494;2023-02-28T09:27:17;6.20;1.00
1504;DHT22;743;47.076;15.494;2023-02-28T09:29:45;6.30;1.00
1504;DHT22;743;47.076;15.494;2023-02-28T09:32:14;6.40;1.00
1504;DHT22;743;47.076;15.494;2023-02-28T09:34:43;6.10;1.00
1504;DHT22;743;47.076;15.494;2023-02-28T09:37:11;6.30;1.00
1504;DHT22;743;47.076;15.494;2023-02-28T09:39:38;5.90;1.00
1504;DHT22;743;47.076;15.494;2023-02-28T09:42:11;6.10;1.00
1504;DHT22;743;47.076;15.494;2023-02-28T09:44:42;6.40;1.00
1504;DHT22;743;47.076;15.494;2023-02-28T09:47:16;6.20;1.00
1504;DHT22;743;47.076;15.494;2023-02-28T09:49:46;5.50;1.00
1504;DHT22;743;47.076;15.494;2023-02-28T09:52:17;6.10;1.00
1504;DHT22;743;47.076;15.494;2023-02-28T09:54:46;6.10;1.00
1504;DHT22;743;47.076;15.494;2023-02-28T09:57:19;6.20;1.00
1504;DHT22;743;47.076;15.494;2023-02-28T10:00:01;6.10;1.00
1504;DHT22;743;47.076;15.494;2023-02-28T10:03:01;6.10;1.00
1504;DHT22;743;47.076;15.494;2023-02-28T10:05:33;6.10;1.00
1504;DHT22;743;47.076;15.494;2023-02-28T10:08:10;6.20;1.00
1504;DHT22;743;47.076;15.494;2023-02-28T10:10:41;6.00;1.00
1504;DHT22;743;47.076;15.494;2023-02-28T10:13:17;6.10;1.00
1504;DHT22;743;47.076;15.494;2023-02-28T10:15:51;6.20;1.00
1504;DHT22;743;47.076;15.494;2023-02-28T10:18:25;7.20;1.00
1504;DHT22;743;47.076;15.494;2023-02-28T10:20:55;7.30;1.00
1504;DHT22;743;47.076;15.494;2023-02-28T10:23:27;7.40;1.00
1504;DHT22;743;47.076;15.494;2023-02-28T10:25:59;7.20;1.00
1504;DHT22;743;47.076;15.494;2023-02-28T10:28:29;7.20;1.00
1504;DHT22;743;47.076;15.494;2023-02-28T10:30:58;7.20;1.00
1504;DHT22;743;47.076;15.494;2023-02-28T10:33:30;6.90;1.00
1504;DHT22;743;47.076;15.494;2023-02-28T10:35:57;7.00;1.00
1504;DHT22;743;47.076;15.494;2023-02-28T10:38:27;6.80;1.00
1504;DHT22;743;47.076;15.494;2023-02-28T10:41:03;7.00;1.00
1504;DHT22;743;47.076;15.494;2023-02-28T10:46:01;7.90;1.00
1504;DHT22;743;47.076;15.494;2023-02-28T10:48:38;7.90;1.00
1504;DHT22;743;47.076;15.494;2023-02-28T10:51:08;7.90;1.00
1504;DHT22;743;47.076;15.494;2023-02-28T10:53:48;7.30;1.00
1504;DHT22;743;47.076;15.494;2023-02-28T10:56:18;7.30;1.00
1504;DHT22;743;47.076;15.494;2023-02-28T10:58:51;6.90;1.00
1504;DHT22;743;47.076;15.494;2023-02-28T11:01:21;7.60;1.00
1504;DHT22;743;47.076;15.494;2023-02-28T11:03:53;7.50;1.00
1504;DHT22;743;47.076;15.494;2023-02-28T11:06:23;7.50;1.00
1504;DHT22;743;47.076;15.494;2023-02-28T11:08:53;7.70;1.00
1504;DHT22;743;47.076;15.494;2023-02-28T11:11:23;7.50;1.00
1504;DHT22;743;47.076;15.494;2023-02-28T11:13:53;7.50;1.00
1504;DHT22;743;47.076;15.494;2023-02-28T11:16:21;7.50;1.00
1504;DHT22;743;47.076;15.494;2023-02-28T11:18:50;7.50;1.00
1504;DHT22;743;47.076;15.494;2023-02-28T11:21:26;7.70;1.00
1504;DHT22;743;47.076;15.494;2023-02-28T11:24:01;7.20;1.00
1504;DHT22;743;47.076;15.494;2023-02-28T11:26:38;7.60;1.00
1504;DHT22;743;47.076;15.494;2023-02-28T11:29:18;7.60;1.00
1504;DHT22;743;47.076;15.494;2023-02-28T11:32:12;7.50;1.00
1504;DHT22;743;47.076;15.494;2023-02-28T11:34:41;7.50;1.00
1504;DHT22;743;47.076;15.494;2023-02-28T11:37:13;7.80;1.00
1504;DHT22;743;47.076;15.494;2023-02-28T11:39:42;8.00;1.00
1504;DHT22;743;47.076;15.494;2023-02-28T11:42:38;7.80;1.00
1504;DHT22;743;47.076;15.494;2023-02-28T11:45:21;7.80;1.00
1504;DHT22;743;47.076;15.494;2023-02-28T11:47:58;7.70;1.00
1504;DHT22;743;47.076;15.494;2023-02-28T11:50:47;7.70;1.00
1504;DHT22;743;47.076;15.494;2023-02-28T11:53:23;7.90;1.00
1504;DHT22;743;47.076;15.494;2023-02-28T11:55:56;7.70;1.00
1504;DHT22;743;47.076;15.494;2023-02-28T11:58:33;8.00;1.00
1504;DHT22;743;47.076;15.494;2023-02-28T12:04:07;7.80;1.00
1504;DHT22;743;47.076;15.494;2023-02-28T12:06:43;8.30;1.00
1504;DHT22;743;47.076;15.494;2023-02-28T12:09:35;7.90;1.00
1504;DHT22;743;47.076;15.494;2023-02-28T12:12:17;8.00;1.00
1504;DHT22;743;47.076;15.494;2023-02-28T12:15:00;8.00;1.00
1504;DHT22;743;47.076;15.494;2023-02-28T12:17:41;8.00;1.00
1504;DHT22;743;47.076;15.494;2023-02-28T12:20:21;8.50;1.00
1504;DHT22;743;47.076;15.494;2023-02-28T12:22:58;8.60;1.00
1504;DHT22;743;47.076;15.494;2023-02-28T12:25:48;8.50;1.00
1504;DHT22;743;47.076;15.494;2023-02-28T12:28:21;8.30;1.00
1504;DHT22;743;47.076;15.494;2023-02-28T12:30:54;8.60;1.00
1504;DHT22;743;47.076;15.494;2023-02-28T12:33:27;8.20;1.00
1504;DHT22;743;47.076;15.494;2023-02-28T12:35:57;8.60;1.00
1504;DHT22;743;47.076;15.494;2023-02-28T12:38:27;8.40;1.00
1504;DHT22;743;47.076;15.494;2023-02-28T12:41:01;8.40;1.00
1504;DHT22;743;47.076;15.494;2023-02-28T12:43:32;8.30;1.00
1504;DHT22;743;47.076;15.494;2023-02-28T12:46:06;8.20;1.00
1504;DHT22;743;47.076;15.494;2023-02-28T12:48:40;8.40;1.00
1504;DHT22;743;47.076;15.494;2023-02-28T12:51:09;8.40;1.00
1504;DHT22;743;47.076;15.494;2023-02-28T12:53:49;8.70;1.00
1504;DHT22;743;47.076;15.494;2023-02-28T12:56:23;8.20;1.00
1504;DHT22;743;47.076;15.494;2023-02-28T12:58:57;7.50;1.00
1504;DHT22;743;47.076;15.494;2023-02-28T13:01:55;8.00;1.00
1504;DHT22;743;47.076;15.494;2023-02-28T13:07:49;7.80;1.00
1504;DHT22;743;47.076;15.494;2023-02-28T13:10:19;8.20;1.00
1504;DHT22;743;47.076;15.494;2023-02-28T13:13:03;8.80;1.00
1504;DHT22;743;47.076;15.494;2023-02-28T13:15:30;8.40;1.00
1504;DHT22;743;47.076;15.494;2023-02-28T13:18:01;8.10;1.00
1504;DHT22;743;47.076;15.494;2023-02-28T13:20:31;8.20;1.00
1504;DHT22;743;47.076;15.494;2023-02-28T13:23:03;7.90;1.00
1504;DHT22;743;47.076;15.494;2023-02-28T13:25:51;8.60;1.00
1504;DHT22;743;47.076;15.494;2023-02-28T13:35:15;9.90;1.00
1504;DHT22;743;47.076;15.494;2023-02-28T13:38:24;10.00;1.00
1504;DHT22;743;47.076;15.494;2023-02-28T13:40:54;10.00;1.00
1504;DHT22;743;47.076;15.494;2023-02-28T13:44:01;10.00;1.00
1504;DHT22;743;47.076;15.494;2023-02-28T13:46:29;9.40;1.00
1504;DHT22;743;47.076;15.494;2023-02-28T13:49:18;9.00;1.00
1504;DHT22;743;47.076;15.494;2023-02-28T13:51:48;9.20;1.00
1504;DHT22;743;47.076;15.494;2023-02-28T13:54:17;9.40;1.00
1504;DHT22;743;47.076;15.494;2023-02-28T13:56:49;10.20;1.00
1504;DHT22;743;47.076;15.494;2023-02-28T13:59:28;10.40;1.00
1504;DHT22;743;47.076;15.494;2023-02-28T14:02:48;10.40;1.00
1504;DHT22;743;47.076;15.494;2023-02-28T14:05:22;10.50;1.00
1504;DHT22;743;47.076;15.494;2023-02-28T14:07:58;10.80;1.00
1504;DHT22;743;47.076;15.494;2023-02-28T14:10:28;10.60;1.00
1504;DHT22;743;47.076;15.494;2023-02-28T14:13:00;10.60;1.00
1504;DHT22;743;47.076;15.494;2023-02-28T14:15:42;10.70;1.00
1504;DHT22;743;47.076;15.494;2023-02-28T14:18:17;10.70;1.00
1504;DHT22;743;47.076;15.494;2023-02-28T14:20:46;11.20;1.00
1504;DHT22;743;47.076;15.494;2023-02-28T14:26:06;11.20;1.00
1504;DHT22;743;47.076;15.494;2023-02-28T14:28:50;13.10;1.00
1504;DHT22;743;47.076;15.494;2023-02-28T14:31:28;12.70;1.00
1504;DHT22;743;47.076;15.494;2023-02-28T14:34:05;11.80;1.00
1504;DHT22;743;47.076;15.494;2023-02-28T14:36:41;11.50;1.00
1504;DHT22;743;47.076;15.494;2023-02-28T14:39:14;11.20;1.00
1504;DHT22;743;47.076;15.494;2023-02-28T14:41:43;11.80;1.00
1504;DHT22;743;47.076;15.494;2023-02-28T14:44:16;11.90;1.00
1504;DHT22;743;47.076;15.494;2023-02-28T14:46:45;11.70;1.00
1504;DHT22;743;47.076;15.494;2023-02-28T14:49:17;12.10;1.00
1504;DHT22;743;47.076;15.494;2023-02-28T14:51:47;12.00;1.00
1504;DHT22;743;47.076;15.494;2023-02-28T14:54:26;11.90;1.00
1504;DHT22;743;47.076;15.494;2023-02-28T14:56:54;11.90;1.00
1504;DHT22;743;47.076;15.494;2023-02-28T14:59:27;12.10;1.00
1504;DHT22;743;47.076;15.494;2023-02-28T15:02:16;12.40;1.00
1504;DHT22;743;47.076;15.494;2023-02-28T15:04:54;12.30;1.00
1504;DHT22;743;47.076;15.494;2023-02-28T15:07:24;12.00;1.00
1504;DHT22;743;47.076;15.494;2023-02-28T15:10:25;12.70;1.00
1504;DHT22;743;47.076;15.494;2023-02-28T15:12:57;12.90;1.00
1504;DHT22;743;47.076;15.494;2023-02-28T15:15:32;12.00;1.00
1504;DHT22;743;47.076;15.494;2023-02-28T15:18:06;12.20;1.00
1504;DHT22;743;47.076;15.494;2023-02-28T15:20:38;12.00;1.00
1504;DHT22;743;47.076;15.494;2023-02-28T15:23:06;11.60;1.00
1504;DHT22;743;47.076;15.494;2023-02-28T15:25:35;11.90;1.00
1504;DHT22;743;47.076;15.494;2023-02-28T15:28:02;11.30;1.00
1504;DHT22;743;47.076;15.494;2023-02-28T15:30:31;10.80;1.00
1504;DHT22;743;47.076;15.494;2023-02-28T15:33:06;10.40;1.00
1504;DHT22;743;47.076;15.494;2023-02-28T15:35:37;10.40;1.00
1504;DHT22;743;47.076;15.494;2023-02-28T15:38:15;10.20;1.00
1504;DHT22;743;47.076;15.494;2023-02-28T15:40:46;10.20;1.00
1504;DHT22;743;47.076;15.494;2023-02-28T15:43:24;10.30;1.00
1504;DHT22;743;47.076;15.494;2023-02-28T15:45:58;10.40;1.00
1504;DHT22;743;47.076;15.494;2023-02-28T15:48:28;9.70;1.00
1504;DHT22;743;47.076;15.494;2023-02-28T15:50:57;9.50;1.00
1504;DHT22;743;47.076;15.494;2023-02-28T15:53:29;9.70;1.00
1504;DHT22;743;47.076;15.494;2023-02-28T15:56:03;9.10;1.00
1504;DHT22;743;47.076;15.494;2023-02-28T15:58:32;9.30;1.00
1504;DHT22;743;47.076;15.494;2023-02-28T16:01:16;9.40;1.00
1504;DHT22;743;47.076;15.494;2023-02-28T16:03:46;9.60;1.00
1504;DHT22;743;47.076;15.494;2023-02-28T16:06:41;10.30;1.00
1504;DHT22;743;47.076;15.494;2023-02-28T16:09:13;10.00;1.00
1504;DHT22;743;47.076;15.494;2023-02-28T16:11:44;10.20;1.00
1504;DHT22;743;47.076;15.494;2023-02-28T16:14:16;9.40;1.00
1504;DHT22;743;47.076;15.494;2023-02-28T16:16:45;9.60;1.00
1504;DHT22;743;47.076;15.494;2023-02-28T16:19:16;9.10;1.00
1504;DHT22;743;47.076;15.494;2023-02-28T16:21:44;9.30;1.00
1504;DHT22;743;47.076;15.494;2023-02-28T16:24:13;9.20;1.00
1504;DHT22;743;47.076;15.494;2023-02-28T16:26:45;9.00;1.00
1504;DHT22;743;47.076;15.494;2023-02-28T16:29:17;9.10;1.00
1504;DHT22;743;47.076;15.494;2023-02-28T16:31:46;9.20;1.00
1504;DHT22;743;47.076;15.494;2023-02-28T16:34:14;9.10;1.00
1504;DHT22;743;47.076;15.494;2023-02-28T16:36:44;9.30;1.00
1504;DHT22;743;47.076;15.494;2023-02-28T16:39:13;9.70;1.00
1504;DHT22;743;47.076;15.494;2023-02-28T16:41:45;9.40;1.00
1504;DHT22;743;47.076;15.494;2023-02-28T16:44:21;9.10;1.00
1504;DHT22;743;47.076;15.494;2023-02-28T16:46:56;8.80;1.00
1504;DHT22;743;47.076;15.494;2023-02-28T16:49:23;8.60;1.00
1504;DHT22;743;47.076;15.494;2023-02-28T16:51:51;8.50;1.00
1504;DHT22;743;47.076;15.494;2023-02-28T16:54:18;8.50;1.00
1504;DHT22;743;47.076;15.494;2023-02-28T16:56:48;8.40;1.00
1504;DHT22;743;47.076;15.494;2023-02-28T16:59:21;8.40;1.00
1504;DHT22;743;47.076;15.494;2023-02-28T17:01:49;8.60;1.00
1504;DHT22;743;47.076;15.494;2023-02-28T17:04:17;8.50;1.00
1504;DHT22;743;47.076;15.494;2023-02-28T17:09:16;8.30;1.00
1504;DHT22;743;47.076;15.494;2023-02-28T17:11:44;8.30;1.00
1504;DHT22;743;47.076;15.494;2023-02-28T17:14:16;8.30;1.00
1504;DHT22;743;47.076;15.494;2023-02-28T17:19:15;8.30;1.00
1504;DHT22;743;47.076;15.494;2023-02-28T17:21:44;8.10;1.00
1504;DHT22;743;47.076;15.494;2023-02-28T17:24:13;8.60;1.00
1504;DHT22;743;47.076;15.494;2023-02-28T17:26:42;9.30;1.00
1504;DHT22;743;47.076;15.494;2023-02-28T17:29:16;12.20;1.00
1504;DHT22;743;47.076;15.494;2023-02-28T17:31:46;13.50;1.00
1504;DHT22;743;47.076;15.494;2023-02-28T17:34:16;15.00;1.00
1504;DHT22;743;47.076;15.494;2023-02-28T17:36:48;14.80;1.00
1504;DHT22;743;47.076;15.494;2023-02-28T17:39:19;14.10;1.00
1504;DHT22;743;47.076;15.494;2023-02-28T17:41:56;13.20;1.00
1504;DHT22;743;47.076;15.494;2023-02-28T17:44:29;11.90;1.00
1504;DHT22;743;47.076;15.494;2023-02-28T17:46:58;10.70;1.00
1504;DHT22;743;47.076;15.494;2023-02-28T17:49:28;10.00;1.00
1504;DHT22;743;47.076;15.494;2023-02-28T17:51:56;10.10;1.00
1504;DHT22;743;47.076;15.494;2023-02-28T17:54:26;9.30;1.00
1504;DHT22;743;47.076;15.494;2023-02-28T17:56:55;8.50;1.00
1504;DHT22;743;47.076;15.494;2023-02-28T17:59:27;8.80;1.00
1504;DHT22;743;47.076;15.494;2023-02-28T18:01:58;8.70;1.00